createdAt,value
2019-02-06T00:00:26.470Z,42.10
2019-02-06T00:01:18.753Z,40.30
2019-02-06T00:02:18.747Z,43.20
2019-02-06T00:03:18.737Z,51.30
2019-02-06T00:04:18.767Z,48.10
2019-02-06T00:05:18.757Z,39.90
2019-02-06T00:06:18.713Z,44.70
2019-02-06T00:07:18.704Z,41.00
2019-02-06T00:08:18.696Z,48.60
2019-02-06T00:09:18.702Z,36.80
2019-02-06T00:10:18.715Z,47.30
2019-02-06T00:11:18.675Z,44.80
2019-02-06T00:12:18.670Z,46.90
2019-02-06T00:13:18.653Z,48.40
2019-02-06T00:14:18.644Z,50.60
2019-02-06T00:15:18.701Z,48.70
2019-02-06T00:16:18.640Z,50.00
2019-02-06T00:17:18.620Z,56.00
2019-02-06T00:18:18.627Z,50.30
2019-02-06T00:19:18.636Z,50.20
2019-02-06T00:20:18.632Z,50.10
2019-02-06T00:21:20.649Z,57.10
2019-02-06T00:22:18.578Z,51.30
2019-02-06T00:23:18.589Z,51.40
2019-02-06T00:24:18.561Z,55.20
2019-02-06T00:25:18.587Z,54.60
2019-02-06T00:26:18.541Z,47.60
2019-02-06T00:27:18.535Z,54.10
2019-02-06T00:28:18.530Z,50.40
2019-02-06T00:29:18.523Z,53.10
2019-02-06T00:30:18.543Z,47.00
2019-02-06T00:31:18.501Z,44.70
2019-02-06T00:32:18.490Z,48.60
2019-02-06T00:33:18.480Z,49.80
2019-02-06T00:34:18.482Z,50.30
2019-02-06T00:35:25.554Z,44.70
2019-02-06T00:36:18.469Z,50.40
2019-02-06T00:37:18.454Z,45.00
2019-02-06T00:38:18.439Z,40.10
2019-02-06T00:39:18.441Z,43.70
2019-02-06T00:40:18.458Z,38.50
2019-02-06T00:41:18.414Z,43.10
2019-02-06T00:42:18.406Z,42.70
2019-02-06T00:43:18.398Z,42.90
2019-02-06T00:44:18.388Z,46.10
2019-02-06T00:45:18.414Z,52.70
2019-02-06T00:46:18.368Z,49.00
2019-02-06T00:47:18.361Z,40.80
2019-02-06T00:48:18.354Z,43.10
2019-02-06T00:49:18.344Z,41.60
2019-02-06T00:50:18.371Z,39.30
2019-02-06T00:51:18.374Z,43.70
2019-02-06T00:52:18.316Z,42.30
2019-02-06T00:53:18.309Z,43.10
2019-02-06T00:54:18.299Z,46.30
2019-02-06T00:55:18.325Z,40.70
2019-02-06T00:56:18.287Z,43.40
2019-02-06T00:57:18.273Z,41.10
2019-02-06T00:58:18.270Z,44.00
2019-02-06T00:59:18.257Z,43.00
2019-02-06T01:00:18.281Z,44.80
2019-02-06T01:01:18.240Z,45.60
2019-02-06T01:02:18.227Z,44.20
2019-02-06T01:03:18.219Z,45.00
2019-02-06T01:04:18.212Z,46.30
2019-02-06T01:05:18.245Z,54.30
2019-02-06T01:06:18.201Z,47.50
2019-02-06T01:07:18.183Z,56.40
2019-02-06T01:08:18.176Z,54.20
2019-02-06T01:09:18.176Z,51.10
2019-02-06T01:10:18.196Z,56.70
2019-02-06T01:11:18.183Z,49.30
2019-02-06T01:12:18.139Z,50.50
2019-02-06T01:13:18.131Z,48.70
2019-02-06T01:14:18.122Z,58.00
2019-02-06T01:15:18.115Z,46.00
2019-02-06T01:16:18.140Z,47.20
2019-02-06T01:17:18.130Z,53.10
2019-02-06T01:18:18.088Z,54.70
2019-02-06T01:19:18.077Z,41.20
2019-02-06T01:20:18.071Z,61.30
2019-02-06T01:21:18.094Z,50.80
2019-02-06T01:22:18.046Z,46.90
2019-02-06T01:23:18.037Z,51.90
2019-02-06T01:24:18.033Z,51.90
2019-02-06T01:25:18.027Z,52.20
2019-02-06T01:26:18.050Z,60.60
2019-02-06T01:27:18.007Z,56.20
2019-02-06T01:28:17.994Z,50.00
2019-02-06T01:29:17.989Z,56.90
2019-02-06T01:30:17.979Z,64.30
2019-02-06T01:31:18.003Z,56.30
2019-02-06T01:32:17.958Z,54.50
2019-02-06T01:33:17.950Z,52.60
2019-02-06T01:34:17.944Z,57.10
2019-02-06T01:35:17.944Z,46.40
2019-02-06T01:36:17.962Z,52.20
2019-02-06T01:37:17.912Z,52.70
2019-02-06T01:38:17.905Z,48.40
2019-02-06T01:39:17.895Z,53.80
2019-02-06T01:40:17.890Z,53.90
2019-02-06T01:41:17.922Z,48.30
2019-02-06T01:42:17.904Z,50.10
2019-02-06T01:43:17.861Z,49.50
2019-02-06T01:44:17.852Z,52.70
2019-02-06T01:45:17.849Z,49.70
2019-02-06T01:46:17.868Z,51.50
2019-02-06T01:47:17.822Z,50.40
2019-02-06T01:48:17.823Z,36.60
2019-02-06T01:49:17.812Z,50.60
2019-02-06T01:50:17.801Z,47.40
2019-02-06T01:51:17.831Z,48.00
2019-02-06T01:52:17.821Z,46.30
2019-02-06T01:53:17.775Z,40.00
2019-02-06T01:54:17.769Z,42.10
2019-02-06T01:55:17.766Z,33.90
2019-02-06T01:56:17.787Z,38.50
2019-02-06T01:57:17.741Z,32.90
2019-02-06T01:58:17.772Z,39.80
2019-02-06T01:59:17.727Z,37.60
2019-02-06T02:00:17.720Z,34.70
2019-02-06T02:01:17.742Z,38.10
2019-02-06T02:02:17.701Z,27.20
2019-02-06T02:03:17.690Z,36.20
2019-02-06T02:04:17.719Z,31.70
2019-02-06T02:05:17.674Z,33.80
2019-02-06T02:06:17.704Z,33.60
2019-02-06T02:07:17.659Z,34.70
2019-02-06T02:08:17.651Z,35.60
2019-02-06T02:09:17.649Z,35.80
2019-02-06T02:10:17.670Z,33.60
2019-02-06T02:11:17.665Z,31.20
2019-02-06T02:12:17.621Z,32.80
2019-02-06T02:13:17.610Z,35.10
2019-02-06T02:14:17.603Z,32.20
2019-02-06T02:15:17.593Z,34.40
2019-02-06T02:16:17.622Z,32.80
2019-02-06T02:17:17.615Z,38.50
2019-02-06T02:18:17.570Z,39.50
2019-02-06T02:19:17.562Z,31.00
2019-02-06T02:20:17.555Z,30.00
2019-02-06T02:21:17.545Z,24.40
2019-02-06T02:22:17.572Z,32.60
2019-02-06T02:23:17.531Z,26.40
2019-02-06T02:24:17.521Z,35.60
2019-02-06T02:25:17.523Z,34.60
2019-02-06T02:26:17.504Z,33.60
2019-02-06T02:27:17.529Z,28.90
2019-02-06T02:28:17.488Z,34.50
2019-02-06T02:29:17.482Z,31.30
2019-02-06T02:30:17.474Z,30.90
2019-02-06T02:31:17.468Z,35.90
2019-02-06T02:32:17.495Z,31.60
2019-02-06T02:33:17.564Z,31.70
2019-02-06T02:34:17.441Z,33.40
2019-02-06T02:35:17.429Z,36.00
2019-02-06T02:36:17.424Z,37.30
2019-02-06T02:37:17.455Z,35.20
2019-02-06T02:38:17.409Z,30.40
2019-02-06T02:39:17.402Z,36.40
2019-02-06T02:40:17.387Z,33.70
2019-02-06T02:41:17.382Z,30.40
2019-02-06T02:42:17.414Z,30.70
2019-02-06T02:43:17.365Z,20.60
2019-02-06T02:44:17.358Z,31.90
2019-02-06T02:45:17.356Z,32.70
2019-02-06T02:46:17.340Z,29.70
2019-02-06T02:47:17.370Z,31.80
2019-02-06T02:48:17.326Z,31.90
2019-02-06T02:49:17.315Z,32.60
2019-02-06T02:50:17.307Z,21.70
2019-02-06T02:51:17.301Z,33.30
2019-02-06T02:52:17.336Z,27.90
2019-02-06T02:53:17.285Z,27.10
2019-02-06T02:54:17.275Z,25.50
2019-02-06T02:55:17.269Z,29.80
2019-02-06T02:56:17.260Z,32.10
2019-02-06T02:57:17.287Z,23.50
2019-02-06T02:58:17.245Z,32.60
2019-02-06T02:59:17.235Z,30.40
2019-02-06T03:00:17.231Z,30.50
2019-02-06T03:01:17.223Z,25.90
2019-02-06T03:02:17.246Z,31.20
2019-02-06T03:03:17.202Z,33.40
2019-02-06T03:04:17.194Z,29.70
2019-02-06T03:05:17.184Z,30.60
2019-02-06T03:06:27.470Z,30.60
2019-02-06T03:07:17.202Z,28.60
2019-02-06T03:08:17.156Z,27.30
2019-02-06T03:09:17.153Z,33.50
2019-02-06T03:10:17.145Z,30.90
2019-02-06T03:11:17.133Z,30.30
2019-02-06T03:12:17.166Z,34.30
2019-02-06T03:13:17.293Z,31.30
2019-02-06T03:14:17.111Z,25.80
2019-02-06T03:15:17.105Z,28.40
2019-02-06T03:16:17.097Z,29.50
2019-02-06T03:17:17.128Z,30.00
2019-02-06T03:18:17.112Z,26.10
2019-02-06T03:19:17.068Z,26.50
2019-02-06T03:20:17.062Z,29.40
2019-02-06T03:21:17.052Z,26.50
2019-02-06T03:22:17.151Z,25.30
2019-02-06T03:23:17.071Z,22.00
2019-02-06T03:24:17.029Z,24.40
2019-02-06T03:25:17.137Z,25.90
2019-02-06T03:26:17.072Z,23.10
2019-02-06T03:27:17.106Z,26.00
2019-02-06T03:28:17.038Z,23.40
2019-02-06T03:29:16.991Z,26.50
2019-02-06T03:30:16.988Z,24.80
2019-02-06T03:31:16.981Z,23.80
2019-02-06T03:32:16.966Z,24.90
2019-02-06T03:33:17.017Z,23.30
2019-02-06T03:34:16.994Z,18.70
2019-02-06T03:35:16.949Z,23.40
2019-02-06T03:36:16.936Z,23.30
2019-02-06T03:37:16.923Z,23.00
2019-02-06T03:38:16.959Z,18.90
2019-02-06T03:39:16.908Z,22.20
2019-02-06T03:40:16.904Z,20.40
2019-02-06T03:41:16.894Z,18.40
2019-02-06T03:42:16.882Z,20.00
2019-02-06T03:43:16.917Z,17.70
2019-02-06T03:44:16.870Z,21.90
2019-02-06T03:45:16.861Z,22.20
2019-02-06T03:46:16.859Z,21.60
2019-02-06T03:47:16.847Z,22.20
2019-02-06T03:48:16.875Z,19.30
2019-02-06T03:49:16.830Z,16.10
2019-02-06T03:50:16.822Z,19.50
2019-02-06T03:51:16.815Z,18.30
2019-02-06T03:52:16.805Z,21.50
2019-02-06T03:53:16.945Z,23.30
2019-02-06T03:54:16.824Z,23.50
2019-02-06T03:55:16.783Z,19.50
2019-02-06T03:56:16.777Z,23.20
2019-02-06T03:57:16.767Z,24.70
2019-02-06T03:58:16.802Z,20.30
2019-02-06T03:59:16.754Z,18.20
2019-02-06T04:00:16.796Z,23.20
2019-02-06T04:01:16.739Z,22.20
2019-02-06T04:02:16.727Z,21.70
2019-02-06T04:03:16.756Z,22.80
2019-02-06T04:04:16.717Z,19.90
2019-02-06T04:05:16.717Z,21.10
2019-02-06T04:06:16.732Z,20.90
2019-02-06T04:07:16.700Z,23.40
2019-02-06T04:08:16.721Z,21.50
2019-02-06T04:09:16.685Z,23.30
2019-02-06T04:10:16.670Z,21.70
2019-02-06T04:11:16.665Z,24.30
2019-02-06T04:12:16.652Z,22.20
2019-02-06T04:13:16.646Z,18.00
2019-02-06T04:14:16.671Z,20.10
2019-02-06T04:15:16.626Z,24.00
2019-02-06T04:16:16.630Z,15.50
2019-02-06T04:17:16.613Z,20.00
2019-02-06T04:18:16.610Z,19.40
2019-02-06T04:19:16.636Z,21.10
2019-02-06T04:20:16.595Z,20.90
2019-02-06T04:21:16.585Z,21.80
2019-02-06T04:22:16.574Z,21.60
2019-02-06T04:23:16.565Z,23.90
2019-02-06T04:24:16.594Z,17.50
2019-02-06T04:25:16.562Z,20.50
2019-02-06T04:26:16.547Z,21.40
2019-02-06T04:27:16.542Z,23.00
2019-02-06T04:28:16.530Z,20.30
2019-02-06T04:29:16.558Z,20.60
2019-02-06T04:30:16.561Z,17.40
2019-02-06T04:31:16.504Z,21.80
2019-02-06T04:32:16.501Z,19.40
2019-02-06T04:33:16.492Z,22.50
2019-02-06T04:34:16.522Z,21.50
2019-02-06T04:35:16.478Z,22.90
2019-02-06T04:36:16.476Z,23.10
2019-02-06T04:37:16.466Z,28.60
2019-02-06T04:38:16.455Z,33.50
2019-02-06T04:39:16.482Z,46.40
2019-02-06T04:40:16.437Z,32.80
2019-02-06T04:41:16.434Z,33.70
2019-02-06T04:42:16.427Z,37.60
2019-02-06T04:43:16.417Z,26.80
2019-02-06T04:44:16.440Z,332.50
2019-02-06T04:45:16.442Z,68.00
2019-02-06T04:46:16.392Z,20.20
2019-02-06T04:47:16.400Z,24.10
2019-02-06T04:48:16.376Z,20.60
2019-02-06T04:49:16.409Z,22.10
2019-02-06T04:50:16.357Z,20.70
2019-02-06T04:51:16.361Z,25.10
2019-02-06T04:52:16.348Z,24.70
2019-02-06T04:53:16.415Z,25.80
2019-02-06T04:54:16.367Z,25.60
2019-02-06T04:55:16.324Z,24.80
2019-02-06T04:56:16.314Z,24.70
2019-02-06T04:57:16.306Z,24.10
2019-02-06T04:58:16.299Z,24.60
2019-02-06T04:59:16.331Z,23.20
2019-02-06T05:00:16.365Z,22.40
2019-02-06T05:01:16.274Z,22.80
2019-02-06T05:02:16.266Z,18.80
2019-02-06T05:03:16.259Z,23.00
2019-02-06T05:04:16.305Z,22.40
2019-02-06T05:05:16.252Z,25.70
2019-02-06T05:06:17.196Z,25.70
2019-02-06T05:07:19.177Z,25.90
2019-02-06T05:08:16.230Z,25.30
2019-02-06T05:09:16.254Z,27.20
2019-02-06T05:10:16.250Z,23.90
2019-02-06T05:11:16.199Z,21.80
2019-02-06T05:12:16.227Z,26.60
2019-02-06T05:13:16.186Z,26.30
2019-02-06T05:14:16.210Z,24.50
2019-02-06T05:15:16.164Z,23.60
2019-02-06T05:16:16.157Z,29.50
2019-02-06T05:17:16.153Z,24.40
2019-02-06T05:18:16.142Z,30.60
2019-02-06T05:19:16.168Z,31.30
2019-02-06T05:20:16.165Z,24.70
2019-02-06T05:21:16.121Z,26.00
2019-02-06T05:22:16.119Z,26.00
2019-02-06T05:23:16.104Z,24.00
2019-02-06T05:24:16.099Z,30.30
2019-02-06T05:25:16.124Z,21.10
2019-02-06T05:26:16.116Z,26.20
2019-02-06T05:27:16.076Z,25.90
2019-02-06T05:28:18.296Z,26.70
2019-02-06T05:29:16.062Z,25.40
2019-02-06T05:30:16.092Z,17.90
2019-02-06T05:31:16.045Z,23.50
2019-02-06T05:32:16.031Z,24.10
2019-02-06T05:33:16.024Z,17.40
2019-02-06T05:34:16.032Z,20.00
2019-02-06T05:35:16.043Z,24.90
2019-02-06T05:36:15.999Z,22.90
2019-02-06T05:37:15.992Z,27.40
2019-02-06T05:38:15.983Z,24.80
2019-02-06T05:39:15.975Z,23.40
2019-02-06T05:40:16.008Z,24.10
2019-02-06T05:41:16.002Z,23.40
2019-02-06T05:42:15.958Z,18.60
2019-02-06T05:43:15.951Z,20.30
2019-02-06T05:44:15.940Z,23.70
2019-02-06T05:45:15.958Z,26.20
2019-02-06T05:46:15.931Z,23.30
2019-02-06T05:47:15.950Z,33.20
2019-02-06T05:48:15.956Z,39.50
2019-02-06T05:49:15.900Z,49.20
2019-02-06T05:50:15.927Z,28.10
2019-02-06T05:51:15.885Z,44.20
2019-02-06T05:52:15.876Z,29.50
2019-02-06T05:53:15.870Z,39.70
2019-02-06T05:54:15.861Z,37.90
2019-02-06T05:55:15.890Z,26.20
2019-02-06T05:56:16.303Z,22.00
2019-02-06T05:57:15.840Z,25.70
2019-02-06T05:58:15.830Z,26.40
2019-02-06T05:59:15.822Z,31.40
2019-02-06T06:00:15.851Z,26.80
2019-02-06T06:01:15.805Z,27.40
2019-02-06T06:02:15.798Z,20.00
2019-02-06T06:03:15.824Z,27.50
2019-02-06T06:04:15.781Z,25.30
2019-02-06T06:05:15.810Z,27.80
2019-02-06T06:06:15.765Z,25.90
2019-02-06T06:07:15.761Z,26.50
2019-02-06T06:08:15.748Z,27.20
2019-02-06T06:09:15.748Z,27.00
2019-02-06T06:10:15.768Z,48.40
2019-02-06T06:11:15.779Z,51.00
2019-02-06T06:12:15.728Z,49.70
2019-02-06T06:13:18.432Z,49.00
2019-02-06T06:14:15.711Z,54.20
2019-02-06T06:15:15.728Z,62.40
2019-02-06T06:16:15.688Z,154.10
2019-02-06T06:17:15.679Z,103.10
2019-02-06T06:18:15.676Z,48.80
2019-02-06T06:19:15.665Z,35.70
2019-02-06T06:20:15.696Z,34.80
2019-02-06T06:21:15.651Z,34.90
2019-02-06T06:22:15.638Z,31.10
2019-02-06T06:23:15.633Z,30.40
2019-02-06T06:24:15.622Z,38.00
2019-02-06T06:25:15.668Z,34.20
2019-02-06T06:26:15.607Z,35.90
2019-02-06T06:27:15.598Z,34.00
2019-02-06T06:28:15.593Z,40.00
2019-02-06T06:29:15.584Z,37.70
2019-02-06T06:30:15.609Z,32.00
2019-02-06T06:31:15.566Z,32.70
2019-02-06T06:32:15.561Z,37.10
2019-02-06T06:33:15.550Z,31.30
2019-02-06T06:34:15.545Z,30.70
2019-02-06T06:35:15.570Z,30.40
2019-02-06T06:36:15.525Z,29.20
2019-02-06T06:37:15.517Z,34.00
2019-02-06T06:38:15.509Z,43.60
2019-02-06T06:39:15.501Z,45.80
2019-02-06T06:40:15.535Z,54.70
2019-02-06T06:41:15.522Z,52.60
2019-02-06T06:42:15.479Z,47.40
2019-02-06T06:43:16.489Z,58.90
2019-02-06T06:44:15.458Z,54.10
2019-02-06T06:45:15.455Z,56.90
2019-02-06T06:46:15.476Z,54.20
2019-02-06T06:47:15.477Z,48.10
2019-02-06T06:48:15.426Z,44.40
2019-02-06T06:49:15.419Z,48.70
2019-02-06T06:50:15.410Z,48.80
2019-02-06T06:51:15.435Z,51.80
2019-02-06T06:52:15.477Z,53.30
2019-02-06T06:53:15.384Z,46.30
2019-02-06T06:54:15.378Z,37.00
2019-02-06T06:55:15.369Z,43.50
2019-02-06T06:56:15.397Z,42.00
2019-02-06T06:57:15.351Z,41.00
2019-02-06T06:58:15.349Z,39.00
2019-02-06T06:59:15.334Z,39.60
2019-02-06T07:00:15.327Z,39.30
2019-02-06T07:01:15.358Z,43.20
2019-02-06T07:02:15.312Z,36.00
2019-02-06T07:03:15.308Z,36.80
2019-02-06T07:04:15.294Z,34.40
2019-02-06T07:05:15.287Z,34.00
2019-02-06T07:06:15.314Z,35.90
2019-02-06T07:07:15.272Z,32.70
2019-02-06T07:08:15.262Z,30.80
2019-02-06T07:09:15.257Z,32.00
2019-02-06T07:10:15.250Z,36.90
2019-02-06T07:11:15.274Z,32.80
2019-02-06T07:12:15.230Z,37.10
2019-02-06T07:13:15.222Z,32.00
2019-02-06T07:14:15.215Z,34.40
2019-02-06T07:15:15.206Z,32.10
2019-02-06T07:16:15.233Z,33.90
2019-02-06T07:17:15.189Z,34.70
2019-02-06T07:18:15.182Z,39.30
2019-02-06T07:19:15.173Z,41.80
2019-02-06T07:20:15.169Z,41.70
2019-02-06T07:21:15.193Z,26.50
2019-02-06T07:22:15.190Z,41.30
2019-02-06T07:23:15.146Z,39.20
2019-02-06T07:24:15.138Z,39.80
2019-02-06T07:25:15.134Z,44.30
2019-02-06T07:26:15.156Z,34.30
2019-02-06T07:27:15.112Z,33.60
2019-02-06T07:28:15.145Z,29.10
2019-02-06T07:29:15.101Z,32.60
2019-02-06T07:30:15.095Z,34.30
2019-02-06T07:31:15.120Z,29.80
2019-02-06T07:32:15.079Z,32.80
2019-02-06T07:33:15.075Z,32.50
2019-02-06T07:34:15.109Z,30.60
2019-02-06T07:35:15.057Z,25.70
2019-02-06T07:36:15.084Z,33.00
2019-02-06T07:37:15.047Z,34.30
2019-02-06T07:38:23.868Z,25.70
2019-02-06T07:39:15.029Z,31.50
2019-02-06T07:40:15.024Z,33.80
2019-02-06T07:41:15.058Z,35.30
2019-02-06T07:42:15.006Z,36.70
2019-02-06T07:43:15.003Z,32.80
2019-02-06T07:44:14.997Z,25.40
2019-02-06T07:45:14.997Z,31.70
2019-02-06T07:46:15.021Z,31.00
2019-02-06T07:47:15.019Z,33.10
2019-02-06T07:48:14.970Z,29.70
2019-02-06T07:49:14.967Z,31.40
2019-02-06T07:50:14.957Z,31.40
2019-02-06T07:51:14.990Z,34.40
2019-02-06T07:52:14.945Z,23.20
2019-02-06T07:53:14.942Z,27.90
2019-02-06T07:54:14.934Z,34.80
2019-02-06T07:55:14.929Z,32.20
2019-02-06T07:56:14.962Z,30.70
2019-02-06T07:57:14.923Z,30.00
2019-02-06T07:58:14.912Z,25.50
2019-02-06T07:59:14.910Z,27.50
2019-02-06T08:00:14.916Z,29.50
2019-02-06T08:01:14.937Z,33.90
2019-02-06T08:02:14.937Z,31.80
2019-02-06T08:03:14.893Z,27.50
2019-02-06T08:04:14.887Z,25.80
2019-02-06T08:05:14.886Z,25.70
2019-02-06T08:06:14.878Z,30.40
2019-02-06T08:07:14.913Z,32.60
2019-02-06T08:08:14.868Z,25.40
2019-02-06T08:09:14.866Z,29.90
2019-02-06T08:10:14.861Z,25.70
2019-02-06T08:11:14.858Z,24.50
2019-02-06T08:12:14.892Z,30.10
2019-02-06T08:13:14.888Z,31.50
2019-02-06T08:14:14.847Z,24.30
2019-02-06T08:15:14.844Z,30.20
2019-02-06T08:16:14.848Z,27.80
2019-02-06T08:17:14.871Z,32.60
2019-02-06T08:18:14.831Z,26.90
2019-02-06T08:19:14.828Z,24.90
2019-02-06T08:20:14.822Z,30.10
2019-02-06T08:21:14.818Z,27.40
2019-02-06T08:22:14.851Z,28.50
2019-02-06T08:23:14.849Z,24.90
2019-02-06T08:24:14.812Z,25.90
2019-02-06T08:25:14.812Z,27.40
2019-02-06T08:26:14.803Z,26.60
2019-02-06T08:27:14.834Z,31.00
2019-02-06T08:28:14.800Z,30.70
2019-02-06T08:29:14.794Z,28.60
2019-02-06T08:30:14.791Z,26.30
2019-02-06T08:31:14.786Z,24.60
2019-02-06T08:32:14.851Z,28.20
2019-02-06T08:33:14.816Z,28.10
2019-02-06T08:34:14.777Z,32.20
2019-02-06T08:35:14.773Z,26.80
2019-02-06T08:36:14.770Z,29.20
2019-02-06T08:37:14.812Z,27.80
2019-02-06T08:38:14.766Z,29.50
2019-02-06T08:39:14.761Z,27.80
2019-02-06T08:40:14.759Z,26.30
2019-02-06T08:41:14.763Z,29.10
2019-02-06T08:42:14.793Z,26.60
2019-02-06T08:43:14.748Z,24.50
2019-02-06T08:44:14.750Z,24.60
2019-02-06T08:45:14.742Z,28.40
2019-02-06T08:46:14.741Z,24.20
2019-02-06T08:47:14.747Z,21.60
2019-02-06T08:48:14.768Z,28.80
2019-02-06T08:49:14.736Z,25.00
2019-02-06T08:50:14.725Z,28.70
2019-02-06T08:51:14.721Z,25.40
2019-02-06T08:52:14.720Z,28.50
2019-02-06T08:53:14.750Z,23.20
2019-02-06T08:54:14.713Z,25.30
2019-02-06T08:55:14.707Z,27.90
2019-02-06T08:56:14.707Z,24.00
2019-02-06T08:57:14.702Z,25.60
2019-02-06T08:58:14.736Z,25.60
2019-02-06T08:59:14.705Z,27.40
2019-02-06T09:00:14.754Z,28.20
2019-02-06T09:01:14.687Z,24.40
2019-02-06T09:02:14.689Z,22.90
2019-02-06T09:03:14.720Z,25.20
2019-02-06T09:04:14.681Z,17.30
2019-02-06T09:05:14.673Z,24.00
2019-02-06T09:06:14.675Z,26.00
2019-02-06T09:07:14.675Z,23.00
2019-02-06T09:08:14.711Z,25.10
2019-02-06T09:09:14.707Z,24.50
2019-02-06T09:10:14.669Z,27.90
2019-02-06T09:11:14.667Z,23.00
2019-02-06T09:12:14.661Z,27.10
2019-02-06T09:13:14.699Z,23.30
2019-02-06T09:14:14.660Z,23.40
2019-02-06T09:15:14.658Z,23.20
2019-02-06T09:16:14.740Z,20.70
2019-02-06T09:17:14.661Z,24.70
2019-02-06T09:18:14.714Z,21.50
2019-02-06T09:19:14.754Z,22.70
2019-02-06T09:20:14.657Z,17.10
2019-02-06T09:21:14.666Z,23.60
2019-02-06T09:22:14.658Z,21.80
2019-02-06T09:23:14.690Z,22.20
2019-02-06T09:24:14.696Z,20.10
2019-02-06T09:25:14.680Z,24.00
2019-02-06T09:26:14.662Z,20.00
2019-02-06T09:27:14.661Z,22.00
2019-02-06T09:28:14.697Z,19.60
2019-02-06T09:29:14.669Z,20.80
2019-02-06T09:30:14.669Z,20.90
2019-02-06T09:31:14.670Z,20.40
2019-02-06T09:32:14.675Z,23.80
2019-02-06T09:33:14.722Z,20.00
2019-02-06T09:34:14.688Z,23.00
2019-02-06T09:35:14.693Z,22.70
2019-02-06T09:36:14.687Z,22.50
2019-02-06T09:37:14.694Z,22.60
2019-02-06T09:38:14.727Z,21.50
2019-02-06T09:39:14.698Z,21.60
2019-02-06T09:40:14.699Z,21.60
2019-02-06T09:41:14.715Z,21.50
2019-02-06T09:42:14.708Z,21.60
2019-02-06T09:43:14.752Z,19.80
2019-02-06T09:44:14.722Z,18.40
2019-02-06T09:45:14.728Z,21.70
2019-02-06T09:46:14.878Z,20.20
2019-02-06T09:47:14.733Z,23.10
2019-02-06T09:48:14.739Z,21.30
2019-02-06T09:49:15.239Z,20.00
2019-02-06T09:50:14.753Z,19.60
2019-02-06T09:51:14.741Z,20.20
2019-02-06T09:52:14.771Z,20.90
2019-02-06T09:53:14.764Z,18.60
2019-02-06T09:54:14.805Z,21.20
2019-02-06T09:55:14.812Z,21.20
2019-02-06T09:56:14.778Z,20.40
2019-02-06T09:57:14.788Z,18.90
2019-02-06T09:58:14.786Z,20.60
2019-02-06T09:59:14.836Z,19.30
2019-02-06T10:00:14.798Z,20.60
2019-02-06T10:01:14.806Z,19.80
2019-02-06T10:02:14.810Z,19.70
2019-02-06T10:03:14.815Z,17.60
2019-02-06T10:04:14.865Z,17.80
2019-02-06T10:05:14.826Z,18.50
2019-02-06T10:06:14.837Z,18.30
2019-02-06T10:07:14.839Z,18.90
2019-02-06T10:08:14.850Z,19.60
2019-02-06T10:09:22.662Z,17.00
2019-02-06T10:10:14.913Z,18.70
2019-02-06T10:11:14.866Z,18.40
2019-02-06T10:12:14.866Z,16.60
2019-02-06T10:13:16.567Z,18.40
2019-02-06T10:14:14.958Z,18.60
2019-02-06T10:15:14.885Z,19.80
2019-02-06T10:16:14.929Z,18.10
2019-02-06T10:17:14.896Z,17.50
2019-02-06T10:18:14.911Z,17.40
2019-02-06T10:19:14.948Z,17.40
2019-02-06T10:20:14.921Z,18.90
2019-02-06T10:21:14.924Z,17.50
2019-02-06T10:22:14.934Z,16.20
2019-02-06T10:23:14.942Z,18.60
2019-02-06T10:24:14.987Z,16.30
2019-02-06T10:25:14.992Z,18.00
2019-02-06T10:26:14.961Z,16.60
2019-02-06T10:27:14.978Z,17.40
2019-02-06T10:28:15.102Z,15.80
2019-02-06T10:29:15.019Z,16.20
2019-02-06T10:30:14.988Z,15.80
2019-02-06T10:31:15.006Z,16.20
2019-02-06T10:32:15.009Z,15.80
2019-02-06T10:33:15.014Z,17.80
2019-02-06T10:34:15.064Z,15.70
2019-02-06T10:35:15.031Z,15.20
2019-02-06T10:36:15.043Z,14.20
2019-02-06T10:37:15.087Z,13.50
2019-02-06T10:38:15.060Z,15.70
2019-02-06T10:39:15.102Z,15.10
2019-02-06T10:40:15.111Z,14.40
2019-02-06T10:41:15.107Z,13.60
2019-02-06T10:42:15.130Z,12.40
2019-02-06T10:43:15.207Z,14.20
2019-02-06T10:44:15.147Z,14.30
2019-02-06T10:45:15.119Z,14.20
2019-02-06T10:46:18.095Z,12.90
2019-02-06T10:47:15.135Z,12.90
2019-02-06T10:48:15.145Z,13.40
2019-02-06T10:49:15.336Z,11.90
2019-02-06T10:50:15.164Z,12.20
2019-02-06T10:51:15.178Z,13.00
2019-02-06T10:52:15.182Z,13.40
2019-02-06T10:53:15.190Z,13.40
2019-02-06T10:54:15.441Z,13.70
2019-02-06T10:55:15.228Z,11.40
2019-02-06T10:56:15.220Z,11.90
2019-02-06T10:57:15.226Z,12.20
2019-02-06T10:58:15.241Z,10.00
2019-02-06T10:59:15.283Z,11.60
2019-02-06T11:00:15.296Z,12.30
2019-02-06T11:01:15.270Z,11.10
2019-02-06T11:02:15.273Z,11.50
2019-02-06T11:03:15.281Z,13.30
2019-02-06T11:04:15.328Z,9.90
2019-02-06T11:05:15.339Z,8.60
2019-02-06T11:06:15.309Z,11.20
2019-02-06T11:07:15.317Z,11.10
2019-02-06T11:08:15.329Z,9.30
2019-02-06T11:09:15.338Z,10.00
2019-02-06T11:10:15.382Z,9.10
2019-02-06T11:11:15.358Z,9.00
2019-02-06T11:12:15.365Z,10.50
2019-02-06T11:13:15.373Z,8.70
2019-02-06T11:14:15.382Z,9.90
2019-02-06T11:15:15.427Z,10.10
2019-02-06T11:16:15.408Z,9.20
2019-02-06T11:17:15.413Z,9.00
2019-02-06T11:18:15.419Z,7.30
2019-02-06T11:19:15.425Z,9.80
2019-02-06T11:20:15.474Z,8.40
2019-02-06T11:21:15.441Z,9.00
2019-02-06T11:22:15.460Z,10.20
2019-02-06T11:23:15.469Z,9.30
2019-02-06T11:24:15.468Z,10.40
2019-02-06T11:25:15.508Z,9.60
2019-02-06T11:26:15.523Z,9.90
2019-02-06T11:27:15.489Z,10.10
2019-02-06T11:28:15.500Z,8.80
2019-02-06T11:29:15.504Z,6.20
2019-02-06T11:30:15.556Z,8.90
2019-02-06T11:31:15.529Z,7.50
2019-02-06T11:32:15.533Z,8.30
2019-02-06T11:33:15.548Z,8.00
2019-02-06T11:34:15.549Z,7.60
2019-02-06T11:35:15.588Z,8.70
2019-02-06T11:36:23.942Z,5.90
2019-02-06T11:37:15.573Z,8.50
2019-02-06T11:38:15.578Z,8.70
2019-02-06T11:39:15.588Z,7.20
2019-02-06T11:40:15.637Z,9.30
2019-02-06T11:41:15.610Z,7.60
2019-02-06T11:42:15.619Z,8.40
2019-02-06T11:43:15.623Z,7.10
2019-02-06T11:44:15.635Z,7.30
2019-02-06T11:45:15.803Z,7.70
2019-02-06T11:46:15.657Z,9.10
2019-02-06T11:47:15.663Z,7.50
2019-02-06T11:48:15.673Z,8.60
2019-02-06T11:49:15.682Z,7.20
2019-02-06T11:50:15.736Z,7.90
2019-02-06T11:51:15.701Z,8.00
2019-02-06T11:52:15.711Z,8.30
2019-02-06T11:53:15.724Z,6.70
2019-02-06T11:54:15.737Z,7.00
2019-02-06T11:55:15.810Z,6.80
2019-02-06T11:56:15.749Z,7.00
2019-02-06T11:57:15.760Z,7.60
2019-02-06T11:58:15.760Z,8.10
2019-02-06T11:59:15.781Z,8.10
2019-02-06T12:00:15.822Z,7.80
2019-02-06T12:01:15.795Z,8.10
2019-02-06T12:02:15.803Z,7.40
2019-02-06T12:03:15.814Z,7.10
2019-02-06T12:04:15.824Z,6.70
2019-02-06T12:05:15.866Z,7.50
2019-02-06T12:06:15.842Z,6.20
2019-02-06T12:07:15.854Z,5.90
2019-02-06T12:08:15.862Z,7.50
2019-02-06T12:09:15.986Z,7.80
2019-02-06T12:10:15.914Z,9.00
2019-02-06T12:11:15.925Z,7.90
2019-02-06T12:12:15.901Z,6.70
2019-02-06T12:13:15.909Z,6.60
2019-02-06T12:14:15.913Z,7.00
2019-02-06T12:15:15.926Z,6.60
2019-02-06T12:16:15.992Z,7.60
2019-02-06T12:17:15.982Z,7.30
2019-02-06T12:18:15.956Z,6.60
2019-02-06T12:19:15.966Z,7.20
2019-02-06T12:20:15.974Z,7.10
2019-02-06T12:21:18.063Z,8.40
2019-02-06T12:22:15.992Z,8.60
2019-02-06T12:23:16.001Z,6.60
2019-02-06T12:24:16.015Z,8.90
2019-02-06T12:25:16.023Z,7.40
2019-02-06T12:26:16.064Z,7.30
2019-02-06T12:27:16.076Z,7.60
2019-02-06T12:28:16.049Z,8.60
2019-02-06T12:29:16.061Z,8.40
2019-02-06T12:30:16.069Z,7.30
2019-02-06T12:31:16.121Z,7.60
2019-02-06T12:32:16.094Z,7.40
2019-02-06T12:33:16.133Z,8.40
2019-02-06T12:34:16.108Z,6.50
2019-02-06T12:35:16.121Z,7.80
2019-02-06T12:36:16.169Z,8.90
2019-02-06T12:37:16.137Z,9.20
2019-02-06T12:38:16.143Z,8.20
2019-02-06T12:39:16.156Z,8.60
2019-02-06T12:40:21.673Z,8.80
2019-02-06T12:41:16.215Z,8.00
2019-02-06T12:42:16.184Z,8.40
2019-02-06T12:43:16.192Z,9.20
2019-02-06T12:44:16.205Z,9.50
2019-02-06T12:45:16.212Z,7.90
2019-02-06T12:46:16.256Z,8.10
2019-02-06T12:47:16.228Z,9.20
2019-02-06T12:48:16.242Z,8.60
2019-02-06T12:49:16.265Z,9.60
2019-02-06T12:50:16.256Z,10.40
2019-02-06T12:51:16.299Z,9.20
2019-02-06T12:52:16.309Z,9.20
2019-02-06T12:53:16.280Z,10.20
2019-02-06T12:54:16.287Z,8.50
2019-02-06T12:55:19.428Z,9.80